createdAt,value
2018-09-30T00:01:16.157Z,4.17
2018-09-30T00:03:50.760Z,2.53
2018-09-30T00:06:25.420Z,2.70
2018-09-30T00:09:00.022Z,2.67
2018-09-30T00:11:34.600Z,2.00
2018-09-30T00:14:09.030Z,2.10
2018-09-30T00:16:43.545Z,2.20
2018-09-30T00:19:17.998Z,1.83
2018-09-30T00:21:52.472Z,1.87
2018-09-30T00:24:32.584Z,3.80
2018-09-30T00:27:12.421Z,2.30
2018-09-30T00:29:47.056Z,1.90
2018-09-30T00:32:21.535Z,2.30
2018-09-30T00:34:56.179Z,1.57
2018-09-30T00:37:30.798Z,1.77
2018-09-30T00:40:05.329Z,1.70
2018-09-30T00:42:40.216Z,1.60
2018-09-30T00:45:14.598Z,1.90
2018-09-30T00:47:49.281Z,1.93
2018-09-30T00:50:23.898Z,2.07
2018-09-30T00:52:58.380Z,1.43
2018-09-30T00:55:32.933Z,1.50
2018-09-30T00:58:07.457Z,2.03
2018-09-30T01:00:42.045Z,2.73
2018-09-30T01:03:16.808Z,2.13
2018-09-30T01:05:51.419Z,1.80
2018-09-30T01:08:25.964Z,1.77
2018-09-30T01:11:00.620Z,1.63
2018-09-30T01:13:35.189Z,1.67
2018-09-30T01:16:10.160Z,1.70
2018-09-30T01:18:44.829Z,1.67
2018-09-30T01:21:19.411Z,1.80
2018-09-30T01:23:54.073Z,1.87
2018-09-30T01:26:28.569Z,1.67
2018-09-30T01:29:02.972Z,1.90
2018-09-30T01:31:37.468Z,1.63
2018-09-30T01:34:12.060Z,2.90
2018-09-30T01:36:46.528Z,1.80
2018-09-30T01:39:20.968Z,1.60
2018-09-30T01:41:55.364Z,1.80
2018-09-30T01:44:30.186Z,1.73
2018-09-30T01:47:04.792Z,2.83
2018-09-30T01:49:39.452Z,1.83
2018-09-30T01:52:25.239Z,1.80
2018-09-30T01:54:59.737Z,1.50
2018-09-30T01:57:36.512Z,1.90
2018-09-30T02:00:12.079Z,1.93
2018-09-30T02:03:03.115Z,1.87
2018-09-30T02:05:37.755Z,1.40
2018-09-30T02:08:12.260Z,1.40
2018-09-30T02:10:47.084Z,1.73
2018-09-30T02:13:21.864Z,1.70
2018-09-30T02:15:56.396Z,2.10
2018-09-30T02:18:31.773Z,1.80
2018-09-30T02:21:06.258Z,1.53
2018-09-30T02:23:40.844Z,1.90
2018-09-30T02:26:15.272Z,1.70
2018-09-30T02:28:50.185Z,1.87
2018-09-30T02:31:24.738Z,2.23
2018-09-30T02:34:06.736Z,2.03
2018-09-30T02:36:41.306Z,1.93
2018-09-30T02:39:15.592Z,1.50
2018-09-30T02:41:49.976Z,1.30
2018-09-30T02:47:42.866Z,1.50
2018-09-30T02:50:17.480Z,1.50
2018-09-30T02:52:52.040Z,1.77
2018-09-30T02:55:26.638Z,1.90
2018-09-30T02:58:01.398Z,1.60
2018-09-30T03:00:35.964Z,1.83
2018-09-30T03:03:10.397Z,1.87
2018-09-30T03:05:44.810Z,1.73
2018-09-30T03:08:24.713Z,1.67
2018-09-30T03:10:59.248Z,1.70
2018-09-30T03:13:33.780Z,1.53
2018-09-30T03:16:08.209Z,2.40
2018-09-30T03:18:42.695Z,1.90
2018-09-30T03:21:17.088Z,1.70
2018-09-30T03:23:51.776Z,2.10
2018-09-30T03:26:26.374Z,1.70
2018-09-30T03:29:01.021Z,1.70
2018-09-30T03:31:35.745Z,1.97
2018-09-30T03:34:10.231Z,1.77
2018-09-30T03:36:44.654Z,1.67
2018-09-30T03:39:19.061Z,2.90
2018-09-30T03:41:53.441Z,1.73
2018-09-30T03:44:27.898Z,1.80
2018-09-30T03:47:02.263Z,1.50
2018-09-30T03:49:37.019Z,1.63
2018-09-30T03:52:11.606Z,1.90
2018-09-30T03:54:46.421Z,1.67
2018-09-30T03:57:20.832Z,1.83
2018-09-30T03:59:55.339Z,1.70
2018-09-30T04:02:30.369Z,1.70
2018-09-30T04:05:04.815Z,2.13
2018-09-30T04:07:39.470Z,1.60
2018-09-30T04:10:13.926Z,1.67
2018-09-30T04:12:48.555Z,1.77
2018-09-30T04:15:23.347Z,2.20
2018-09-30T04:17:57.851Z,1.87
2018-09-30T04:20:32.429Z,1.80
2018-09-30T04:23:06.994Z,1.77
2018-09-30T04:25:41.432Z,1.77
2018-09-30T04:28:16.516Z,1.60
2018-09-30T04:30:50.992Z,3.50
2018-09-30T04:33:25.710Z,1.80
2018-09-30T04:36:00.423Z,1.87
2018-09-30T04:38:35.031Z,1.90
2018-09-30T04:41:09.480Z,1.73
2018-09-30T04:43:44.300Z,1.93
2018-09-30T04:46:18.956Z,1.87
2018-09-30T04:48:53.657Z,2.03
2018-09-30T04:51:28.310Z,2.00
2018-09-30T04:54:03.065Z,2.23
2018-09-30T04:56:37.660Z,1.60
2018-09-30T04:59:12.429Z,1.73
2018-09-30T05:01:46.981Z,1.73
2018-09-30T05:04:21.698Z,1.87
2018-09-30T05:10:03.122Z,1.73
2018-09-30T05:12:45.334Z,1.53
2018-09-30T05:15:19.782Z,2.13
2018-09-30T05:17:54.207Z,2.37
2018-09-30T05:20:28.603Z,1.60
2018-09-30T05:23:03.119Z,2.03
2018-09-30T05:25:37.845Z,1.97
2018-09-30T05:28:12.285Z,2.23
2018-09-30T05:30:46.775Z,1.80
2018-09-30T05:33:21.213Z,2.23
2018-09-30T05:35:56.081Z,1.93
2018-09-30T05:38:30.678Z,2.10
2018-09-30T05:41:05.452Z,1.70
2018-09-30T05:43:39.939Z,2.40
2018-09-30T05:46:14.614Z,1.90
2018-09-30T05:48:49.172Z,2.13
2018-09-30T05:51:23.735Z,1.63
2018-09-30T05:53:58.134Z,2.00
2018-09-30T05:56:32.782Z,2.20
2018-09-30T06:02:20.601Z,1.73
2018-09-30T06:04:55.116Z,1.77
2018-09-30T06:07:29.695Z,2.10
2018-09-30T06:10:04.252Z,2.13
2018-09-30T06:12:38.808Z,1.73
2018-09-30T06:15:13.253Z,1.77
2018-09-30T06:17:47.683Z,1.77
2018-09-30T06:20:22.192Z,2.00
2018-09-30T06:22:56.695Z,1.73
2018-09-30T06:25:31.365Z,1.80
2018-09-30T06:28:05.847Z,2.10
2018-09-30T06:30:40.343Z,2.00
2018-09-30T06:33:14.871Z,2.47
2018-09-30T06:35:49.323Z,2.50
2018-09-30T06:38:23.736Z,3.00
2018-09-30T06:40:58.192Z,1.90
2018-09-30T06:43:33.268Z,2.20
2018-09-30T06:46:07.900Z,2.00
2018-09-30T06:48:42.932Z,2.10
2018-09-30T06:51:17.456Z,2.20
2018-09-30T06:53:59.501Z,1.80
2018-09-30T06:56:34.171Z,2.23
2018-09-30T06:59:08.984Z,2.43
2018-09-30T07:01:43.563Z,1.60
2018-09-30T07:04:17.900Z,2.30
2018-09-30T07:06:52.285Z,2.00
2018-09-30T07:09:26.809Z,2.03
2018-09-30T07:12:01.288Z,2.20
2018-09-30T07:14:36.160Z,1.70
2018-09-30T07:17:10.571Z,1.70
2018-09-30T07:19:45.306Z,3.60
2018-09-30T07:22:19.758Z,2.27
2018-09-30T07:24:54.191Z,1.90
2018-09-30T07:27:28.654Z,2.10
2018-09-30T07:30:07.928Z,2.13
2018-09-30T07:32:42.408Z,1.90
2018-09-30T07:35:17.708Z,1.70
2018-09-30T07:37:52.398Z,2.00
2018-09-30T07:40:26.988Z,2.67
2018-09-30T07:43:01.476Z,1.80
2018-09-30T07:45:35.965Z,2.33
2018-09-30T07:48:15.796Z,2.70
2018-09-30T07:50:50.341Z,5.07
2018-09-30T07:53:25.080Z,2.47
2018-09-30T07:56:18.252Z,4.87
2018-09-30T07:58:52.994Z,3.30
2018-09-30T08:01:28.192Z,3.73
2018-09-30T08:04:02.793Z,2.73
2018-09-30T08:06:37.354Z,3.13
2018-09-30T08:09:12.660Z,3.40
2018-09-30T08:11:47.205Z,2.90
2018-09-30T08:14:21.668Z,2.90
2018-09-30T08:16:56.136Z,2.67
2018-09-30T08:19:30.945Z,2.97
2018-09-30T08:22:05.672Z,2.80
2018-09-30T08:24:40.454Z,2.77
2018-09-30T08:27:15.246Z,2.60
2018-09-30T08:29:50.085Z,2.33
2018-09-30T08:32:24.619Z,2.87
2018-09-30T08:34:58.977Z,3.50
2018-09-30T08:37:38.654Z,3.10
2018-09-30T08:40:13.308Z,2.60
2018-09-30T08:42:47.801Z,2.80
2018-09-30T08:45:22.266Z,2.33
2018-09-30T08:47:57.488Z,2.13
2018-09-30T08:50:31.933Z,2.50
2018-09-30T08:53:06.660Z,2.70
2018-09-30T08:55:41.221Z,2.23
2018-09-30T08:58:15.772Z,2.27
2018-09-30T09:00:50.412Z,2.57
2018-09-30T09:03:25.711Z,2.13
2018-09-30T09:06:00.174Z,2.40
2018-09-30T09:08:34.637Z,1.87
2018-09-30T09:11:09.226Z,1.93
2018-09-30T09:13:44.145Z,1.77
2018-09-30T09:16:19.105Z,2.50
2018-09-30T09:18:54.181Z,2.00
2018-09-30T09:30:32.874Z,1.93
2018-09-30T09:33:07.526Z,2.13
2018-09-30T09:35:42.204Z,2.10
2018-09-30T09:38:16.937Z,2.10
2018-09-30T09:40:51.478Z,2.00
2018-09-30T09:43:26.041Z,2.10
2018-09-30T09:46:00.784Z,2.50
2018-09-30T09:48:35.408Z,2.40
2018-09-30T09:51:09.921Z,2.43
2018-09-30T09:53:44.601Z,2.30
2018-09-30T09:56:19.134Z,2.33
2018-09-30T10:01:35.568Z,1.93
2018-09-30T10:04:09.946Z,2.20
2018-09-30T10:06:44.604Z,2.20
2018-09-30T10:09:19.094Z,2.13
2018-09-30T10:11:53.676Z,2.03
2018-09-30T10:14:28.075Z,2.13
2018-09-30T10:17:02.531Z,2.30
2018-09-30T10:19:37.016Z,2.03
2018-09-30T10:22:11.535Z,2.23
2018-09-30T10:24:45.851Z,2.03
2018-09-30T10:27:20.170Z,2.03
2018-09-30T10:29:54.638Z,1.87
2018-09-30T10:32:29.060Z,1.90
2018-09-30T10:35:03.364Z,2.17
2018-09-30T10:37:37.792Z,1.83
2018-09-30T10:40:12.239Z,2.07
2018-09-30T10:42:46.704Z,1.73
2018-09-30T10:45:20.964Z,2.13
2018-09-30T10:47:55.751Z,2.73
2018-09-30T10:50:30.121Z,2.20
2018-09-30T10:53:04.422Z,1.80
2018-09-30T10:55:38.713Z,2.10
2018-09-30T10:58:13.260Z,2.63
2018-09-30T11:00:47.775Z,1.90
2018-09-30T11:03:22.179Z,2.03
2018-09-30T11:05:56.552Z,2.23
2018-09-30T11:08:30.960Z,2.20
2018-09-30T11:11:05.415Z,2.10
2018-09-30T11:13:39.871Z,2.47
2018-09-30T11:16:14.392Z,2.13
2018-09-30T11:18:48.807Z,2.50
2018-09-30T11:21:23.095Z,2.00
2018-09-30T11:23:57.443Z,2.37
2018-09-30T11:26:31.795Z,2.40
2018-09-30T11:29:06.476Z,2.17
2018-09-30T11:31:41.436Z,2.07
2018-09-30T11:34:15.996Z,2.10
2018-09-30T11:36:54.415Z,2.10
2018-09-30T11:39:29.051Z,2.20
2018-09-30T11:42:04.269Z,1.97
2018-09-30T11:44:38.933Z,2.70
2018-09-30T11:47:13.485Z,2.37
2018-09-30T11:49:48.194Z,2.60
2018-09-30T11:52:23.310Z,2.40
2018-09-30T11:54:57.849Z,2.00
2018-09-30T11:57:32.936Z,3.27
2018-09-30T12:00:07.637Z,2.60
2018-09-30T12:02:42.348Z,2.50
2018-09-30T12:05:17.179Z,2.20
2018-09-30T12:07:52.021Z,2.63
2018-09-30T12:10:26.765Z,2.50
2018-09-30T12:13:01.349Z,2.20
2018-09-30T12:15:36.081Z,2.00
2018-09-30T12:18:10.600Z,2.23
2018-09-30T12:20:45.365Z,2.23
2018-09-30T12:23:20.070Z,3.40
2018-09-30T12:25:54.963Z,2.10
2018-09-30T12:28:29.673Z,2.30
2018-09-30T12:31:04.224Z,2.17
2018-09-30T12:33:39.259Z,2.40
2018-09-30T12:36:14.188Z,2.63
2018-09-30T12:38:49.017Z,2.20
2018-09-30T12:41:23.642Z,2.20
2018-09-30T12:43:58.374Z,2.10
2018-09-30T12:46:33.267Z,2.57
2018-09-30T12:49:17.929Z,2.30
2018-09-30T12:52:05.929Z,2.57
2018-09-30T12:54:40.856Z,2.70
2018-09-30T12:57:15.632Z,2.40
2018-09-30T12:59:50.501Z,2.47
2018-09-30T13:02:26.243Z,2.17
2018-09-30T13:05:01.361Z,2.57
2018-09-30T13:07:35.932Z,1.93
2018-09-30T13:10:10.360Z,2.43
2018-09-30T13:12:45.232Z,2.37
2018-09-30T13:15:19.828Z,2.70
2018-09-30T13:17:54.485Z,2.57
2018-09-30T13:20:29.179Z,2.20
2018-09-30T13:23:03.785Z,2.27
2018-09-30T13:25:42.289Z,2.20
2018-09-30T13:28:18.973Z,3.07
2018-09-30T13:30:57.488Z,2.60
2018-09-30T13:33:32.459Z,2.83
2018-09-30T13:36:07.102Z,2.23
2018-09-30T13:38:41.705Z,2.57
2018-09-30T13:41:16.278Z,2.83
2018-09-30T13:43:50.856Z,2.40
2018-09-30T13:46:25.395Z,2.50
2018-09-30T13:48:59.872Z,2.57
2018-09-30T13:51:34.569Z,2.40
2018-09-30T13:54:09.229Z,2.57
2018-09-30T13:56:43.988Z,2.33
2018-09-30T13:59:18.775Z,3.40
2018-09-30T14:01:53.342Z,2.83
2018-09-30T14:04:27.900Z,2.43
2018-09-30T14:07:02.332Z,2.90
2018-09-30T14:09:36.800Z,2.70
2018-09-30T14:12:11.425Z,2.90
2018-09-30T14:14:45.992Z,2.33
2018-09-30T14:17:20.523Z,2.40
2018-09-30T14:19:55.107Z,2.53
2018-09-30T14:22:29.968Z,2.50
2018-09-30T14:25:04.844Z,2.60
2018-09-30T14:27:39.393Z,3.53
2018-09-30T14:30:13.946Z,12.17
2018-09-30T14:32:48.621Z,13.27
2018-09-30T14:35:23.212Z,73.87
2018-09-30T14:37:57.836Z,4.23
2018-09-30T14:40:32.408Z,7.47
2018-09-30T14:43:07.064Z,25.57
2018-09-30T14:45:41.685Z,4.13
2018-09-30T14:48:17.001Z,2.50
2018-09-30T14:50:51.581Z,2.70
2018-09-30T14:53:26.248Z,2.97
2018-09-30T14:56:00.694Z,2.40
2018-09-30T14:58:35.324Z,2.63
2018-09-30T15:01:09.990Z,2.67
2018-09-30T15:03:44.624Z,2.40
2018-09-30T15:06:19.343Z,2.77
2018-09-30T15:08:54.112Z,2.10
2018-09-30T15:11:29.152Z,2.03
2018-09-30T15:14:04.069Z,2.30
2018-09-30T15:16:38.509Z,2.70
2018-09-30T15:19:13.086Z,2.57
2018-09-30T15:21:47.772Z,2.50
2018-09-30T15:24:22.405Z,2.20
2018-09-30T15:26:57.011Z,1.87
2018-09-30T15:29:31.574Z,2.13
2018-09-30T15:32:06.099Z,1.90
2018-09-30T15:34:40.680Z,3.17
2018-09-30T15:37:15.328Z,2.60
2018-09-30T15:39:49.933Z,2.73
2018-09-30T15:42:24.568Z,2.37
2018-09-30T15:44:59.194Z,2.90
2018-09-30T15:47:33.917Z,3.13
2018-09-30T15:50:08.427Z,2.60
2018-09-30T15:52:43.089Z,2.63
2018-09-30T15:55:17.818Z,2.70
2018-09-30T15:57:52.487Z,2.63
2018-09-30T16:00:27.169Z,3.10
2018-09-30T16:03:14.401Z,2.50
2018-09-30T16:05:48.771Z,2.83
2018-09-30T16:08:23.273Z,3.03
2018-09-30T16:10:57.889Z,2.37
2018-09-30T16:13:32.493Z,2.80
2018-09-30T16:16:07.485Z,2.70
2018-09-30T16:18:41.980Z,3.03
2018-09-30T16:21:16.718Z,2.70
2018-09-30T16:23:51.737Z,2.53
2018-09-30T16:26:28.212Z,3.10
2018-09-30T16:29:02.856Z,2.60
2018-09-30T16:31:37.337Z,2.60
2018-09-30T16:34:11.972Z,2.30
2018-09-30T16:36:46.723Z,2.70
2018-09-30T16:39:21.406Z,2.70
2018-09-30T16:41:56.249Z,2.90
2018-09-30T16:44:31.133Z,2.40
2018-09-30T16:47:05.724Z,3.20
2018-09-30T16:49:40.200Z,2.20
2018-09-30T16:52:14.808Z,2.30
2018-09-30T16:54:49.473Z,2.90
2018-09-30T16:57:24.116Z,2.63
2018-09-30T16:59:58.648Z,2.10
2018-09-30T17:02:33.193Z,2.63
2018-09-30T17:05:07.983Z,2.43
2018-09-30T17:07:43.228Z,2.20
2018-09-30T17:10:17.841Z,2.57
2018-09-30T17:12:52.313Z,2.80
2018-09-30T17:15:26.956Z,2.43
2018-09-30T17:18:01.438Z,3.17
2018-09-30T17:20:36.156Z,2.53
2018-09-30T17:23:10.688Z,4.87
2018-09-30T17:25:45.244Z,2.63
2018-09-30T17:28:19.759Z,2.83
2018-09-30T17:30:54.232Z,3.10
2018-09-30T17:33:29.177Z,3.20
2018-09-30T17:36:03.636Z,2.73
2018-09-30T17:38:38.199Z,2.40
2018-09-30T17:41:12.951Z,2.90
2018-09-30T17:43:47.564Z,2.50
2018-09-30T17:46:22.034Z,3.10
2018-09-30T17:48:56.696Z,2.90
2018-09-30T17:51:31.512Z,3.13
2018-09-30T17:54:06.309Z,2.90
2018-09-30T17:56:41.171Z,3.60
2018-09-30T17:59:15.573Z,2.90
2018-09-30T18:01:50.344Z,3.10
2018-09-30T18:04:25.336Z,3.57
2018-09-30T18:07:00.032Z,3.57
2018-09-30T18:09:34.524Z,3.87
2018-09-30T18:12:09.076Z,3.47
2018-09-30T18:14:43.455Z,3.30
2018-09-30T18:17:17.915Z,3.70
2018-09-30T18:19:52.489Z,3.90
2018-09-30T18:22:27.483Z,13.27
2018-09-30T18:25:02.009Z,13.70
2018-09-30T18:27:36.828Z,9.60
2018-09-30T18:30:12.112Z,7.60
2018-09-30T18:32:46.649Z,7.93
2018-09-30T18:35:21.240Z,7.53
2018-09-30T18:37:55.983Z,8.00
2018-09-30T18:40:38.449Z,6.60
2018-09-30T18:43:13.404Z,7.97
2018-09-30T18:45:48.233Z,11.67
2018-09-30T18:48:22.920Z,21.80
2018-09-30T18:50:57.402Z,26.10
2018-09-30T18:53:31.917Z,17.57
2018-09-30T18:56:07.032Z,17.10
2018-09-30T18:58:41.593Z,12.67
2018-09-30T19:01:16.149Z,10.47
2018-09-30T19:03:50.664Z,9.80
2018-09-30T19:06:25.429Z,9.47
2018-09-30T19:09:00.069Z,9.97
2018-09-30T19:11:34.702Z,11.53
2018-09-30T19:14:09.424Z,11.33
2018-09-30T19:16:44.157Z,9.60
2018-09-30T19:19:19.146Z,9.90
2018-09-30T19:21:53.643Z,11.03
2018-09-30T19:24:28.157Z,9.67
2018-09-30T19:27:02.688Z,8.50
2018-09-30T19:29:37.305Z,8.70
2018-09-30T19:32:11.704Z,9.10
2018-09-30T19:34:46.661Z,11.93
2018-09-30T19:37:21.140Z,13.00
2018-09-30T19:39:55.703Z,12.37
2018-09-30T19:42:30.141Z,10.90
2018-09-30T19:45:05.277Z,12.60
2018-09-30T19:47:39.749Z,9.67
2018-09-30T19:50:14.352Z,8.90
2018-09-30T19:52:49.045Z,7.67
2018-09-30T19:55:23.734Z,8.23
2018-09-30T19:58:04.440Z,7.10
2018-09-30T20:00:43.721Z,7.10
2018-09-30T20:03:18.352Z,7.70
2018-09-30T20:05:52.977Z,8.10
2018-09-30T20:08:27.609Z,7.63
2018-09-30T20:11:02.701Z,7.70
2018-09-30T20:13:37.388Z,6.67
2018-09-30T20:16:11.785Z,7.37
2018-09-30T20:18:46.236Z,8.20
2018-09-30T20:21:20.884Z,8.40
2018-09-30T20:23:55.793Z,9.00
2018-09-30T20:26:30.392Z,8.30
2018-09-30T20:29:05.085Z,9.53
2018-09-30T20:31:39.782Z,8.10
2018-09-30T20:34:14.412Z,8.07
2018-09-30T20:36:49.073Z,8.23
2018-09-30T20:39:23.612Z,8.47
2018-09-30T20:41:58.317Z,8.50
2018-09-30T20:44:32.868Z,8.73
2018-09-30T20:47:07.593Z,9.00
2018-09-30T20:49:42.233Z,8.97
2018-09-30T20:52:16.929Z,8.13
2018-09-30T20:54:51.385Z,9.53
2018-09-30T20:57:25.984Z,8.07
2018-09-30T21:00:00.875Z,8.50
2018-09-30T21:02:35.444Z,7.87
2018-09-30T21:05:19.464Z,8.73
2018-09-30T21:07:54.287Z,9.00
2018-09-30T21:10:28.765Z,7.83
2018-09-30T21:13:03.400Z,8.30
2018-09-30T21:15:37.993Z,7.73
2018-09-30T21:18:12.546Z,7.90
2018-09-30T21:20:47.497Z,7.83
2018-09-30T21:23:22.069Z,8.00
2018-09-30T21:25:56.985Z,8.37
2018-09-30T21:28:31.635Z,7.97
2018-09-30T21:31:06.164Z,7.17
2018-09-30T21:33:40.704Z,7.20
2018-09-30T21:36:15.341Z,7.70
2018-09-30T21:38:49.968Z,7.50
2018-09-30T21:41:24.532Z,8.13
2018-09-30T21:43:59.296Z,8.50
2018-09-30T21:46:33.712Z,7.87
2018-09-30T21:49:08.689Z,7.43
2018-09-30T21:51:43.112Z,7.50
2018-09-30T21:54:17.956Z,7.20
2018-09-30T21:56:52.572Z,7.90
2018-09-30T21:59:27.040Z,7.47
2018-09-30T22:02:01.538Z,7.33
2018-09-30T22:04:36.191Z,7.33
2018-09-30T22:07:10.718Z,8.03
2018-09-30T22:09:45.105Z,7.80
2018-09-30T22:12:19.580Z,7.40
2018-09-30T22:14:54.216Z,7.53
2018-09-30T22:17:28.912Z,7.27
2018-09-30T22:20:03.397Z,7.23
2018-09-30T22:22:38.385Z,7.37
2018-09-30T22:25:12.923Z,7.30
2018-09-30T22:27:47.864Z,12.97
2018-09-30T22:30:22.468Z,24.43
2018-09-30T22:32:57.029Z,29.90
2018-09-30T22:35:31.377Z,37.37
2018-09-30T22:38:06.032Z,36.17
2018-09-30T22:40:40.617Z,34.07
2018-09-30T22:43:15.248Z,37.90
2018-09-30T22:45:49.876Z,33.93
2018-09-30T22:48:24.423Z,19.57
2018-09-30T22:50:58.949Z,15.03
2018-09-30T22:53:33.591Z,11.27
2018-09-30T22:56:08.179Z,8.73
2018-09-30T22:58:43.120Z,9.27
2018-09-30T23:01:17.984Z,6.63
2018-09-30T23:03:52.960Z,6.90
2018-09-30T23:06:27.628Z,6.67
2018-09-30T23:09:02.101Z,6.57
2018-09-30T23:11:36.908Z,6.63
2018-09-30T23:14:11.441Z,7.20
2018-09-30T23:16:46.004Z,6.67
2018-09-30T23:19:20.500Z,6.60
2018-09-30T23:21:55.057Z,6.93
2018-09-30T23:24:29.573Z,7.43
2018-09-30T23:27:04.270Z,8.10
2018-09-30T23:29:39.008Z,7.77
2018-09-30T23:32:13.611Z,8.23
2018-09-30T23:34:48.217Z,7.93
2018-09-30T23:37:22.944Z,8.67
2018-09-30T23:40:17.372Z,8.00
2018-09-30T23:42:51.907Z,8.20
2018-09-30T23:45:26.840Z,8.73
2018-09-30T23:48:01.493Z,8.30
2018-09-30T23:50:36.136Z,7.63
2018-09-30T23:53:10.822Z,8.43
2018-09-30T23:55:45.697Z,8.53
2018-09-30T23:58:20.433Z,8.57
